• Join FlightAware (Why Join?)
  • Login
  • US Flag 
Gobble Gobble! 
08:28PM EST


 

Airport Tracker/Info


-or-


 

Live Flight TrackerFlight Track Log ✈ AWI3551 ✈ 25-Jun-2013 ✈ KBUF - KPHL

Flight Track Log - Related Links

Times and Time Zones

All times are in EDT time to prevent confusion due to time zone crossing. See the AWI3551 flight status page for this flight to view local times or setup timezone preferences in your user account.

Time Position Orientation Groundspeed Altitude Reporting Facility
EDT Latitude Longitude Course Direction KTS MPH feet Rate Location/Type
06:40AM 42.9167 -78.7500 174° South 158 182 1,500  Level Buffalo TRACON
06:41AM 42.9000 -78.7667 216° Southwest 165 190 2,300 1,560 Climbing Buffalo TRACON
06:42AM 42.8500 -78.7833 194° South 238 274 3,900 1,500 Climbing Buffalo TRACON
06:42AM 42.8153 -78.7858 183° South 278 320 4,700 2,040 Climbing Cleveland Center
06:43AM 42.6114 -78.6823 172° South  Level FlightAware Approximate
06:43AM 42.7336 -78.7656 170° South 285 328 7,200  Level Cleveland Center
06:44AM 42.5045 -78.6619 173° South  Level FlightAware Approximate
06:44AM 42.6583 -78.7481 170° South 278 320 9,100  Level Cleveland Center
06:45AM 42.3970 -78.6500 180° South  Level FlightAware Approximate
06:45AM 42.5850 -78.7278 168° South 270 311 10,500  Level Cleveland Center
06:46AM 42.2895 -78.6389 174° South  Level FlightAware Approximate
06:46AM 42.4972 -78.7078 170° South 294 338 11,000  Level Cleveland Center
06:47AM 42.4031 -78.6853 170° South 327 376 12,500 1,320 Climbing Cleveland Center
06:48AM 42.3067 -78.6628 170° South 346 398 13,700 1,200 Climbing Cleveland Center
06:49AM 42.2125 -78.6431 171° South 366 421 14,900 1,140 Climbing Cleveland Center
06:50AM 42.1017 -78.6269 174° South 373 429 16,000 900 Climbing Cleveland Center
06:51AM 41.9975 -78.6244 179° South 373 429 16,800 780 Climbing Cleveland Center
06:52AM 41.8911 -78.6222 179° South 378 435 17,600 780 Climbing Cleveland Center
06:53AM 41.7953 -78.6167 178° South 383 441 18,400 600 Climbing Cleveland Center
06:54AM 41.6961 -78.5531 154° Southeast 381 438 18,900 600 Climbing Cleveland Center
06:55AM 41.5989 -78.4839 152° Southeast 386 444 19,600 600 Climbing Cleveland Center
06:56AM 41.4975 -78.4097 151° Southeast 398 458 20,100 480 Climbing Cleveland Center
06:58AM 41.3689 -78.3186 152° Southeast 423 487 20,700 480 Climbing New York Center
06:59AM 41.2694 -78.2439 151° Southeast 423 487 21,200 480 Climbing New York Center
07:00AM 41.1678 -78.1719 152° Southeast 417 480 21,700 480 Climbing New York Center
07:01AM 41.0658 -78.1003 152° Southeast 417 480 22,200 480 Climbing New York Center
07:02AM 40.9619 -78.0258 152° Southeast 417 480 22,700 -360 Climbing New York Center
07:03AM 40.8703 -77.9228 140° Southeast 417 480 21,500 -1,380 Descending New York Center
07:04AM 40.7900 -77.8019 131° Southeast 429 494 20,000 -1,560 Descending New York Center
07:05AM 40.7136 -77.6847 131° Southeast 434 499 18,400 -1,020 Descending New York Center
07:06AM 40.6389 -77.5703 131° Southeast 405 466 18,000 -240 Descending New York Center
07:07AM 40.5956 -77.4539 116° Southeast 387 445 18,000  Level New York Center
07:08AM 40.5386 -77.3144 118° Southeast 398 458 18,000  Level New York Center
07:09AM 40.4892 -77.1925 118° Southeast 411 473 18,000  Level New York Center
07:10AM 40.4322 -77.0508 118° Southeast 405 466 18,000  Level New York Center
07:11AM 40.3825 -76.9208 117° Southeast 405 466 18,000  Level New York Center
07:12AM 40.3458 -76.7869 110° East 391 450 18,000  Level New York Center
07:13AM 40.3164 -76.6644 107° East 386 444 18,000 -540 Level New York Center
07:14AM 40.2817 -76.5228 108° East 393 452 17,000 -1,560 Descending New York Center
07:15AM 40.2469 -76.3811 108° East 393 452 15,000 -1,980 Descending New York Center
07:16AM 40.2131 -76.2561 110° East 373 429 13,200 -1,800 Descending New York Center
07:17AM 40.1833 -76.1369 108° East 356 410 11,400 -1,680 Descending New York Center
07:18AM 40.1567 -76.0317 108° East 344 396 9,800 -1,680 Descending New York Center
07:19AM 40.1283 -75.9181 108° East 310 357 8,100 -900 Descending New York Center
07:20AM 40.1031 -75.8267 110° East 300 345 8,000 -360 Descending New York Center
07:21AM 40.0786 -75.7136 106° East 300 345 7,400 -960 Descending New York Center
07:22AM 40.0764 -75.6186 92° East 294 338 6,200 -720 Descending New York Center
07:23AM 40.0686 -75.5014 95° East 289 333 6,000 -120 Descending New York Center
07:24AM 40.0642 -75.4061 93° East 295 339 6,000  Level New York Center
07:25AM 40.0583 -75.2892 94° East 295 339 6,000  Level New York Center
07:26AM 40.0433 -75.1878 101° East 295 339 6,000  Level New York Center
07:27AM 40.0239 -75.0972 106° East 295 339 6,000  Level New York Center